sensor_id;sensor_type;location;lat;lon;timestamp;P1;durP1;ratioP1;P2;durP2;ratioP2
18259;SDS011;9256;52.236;5.712;2024-03-22T00:02:12;79.07;;;26.92;;
18259;SDS011;9256;52.236;5.712;2024-03-22T00:04:40;83.60;;;28.20;;
18259;SDS011;9256;52.236;5.712;2024-03-22T00:07:05;80.47;;;27.25;;
18259;SDS011;9256;52.236;5.712;2024-03-22T00:09:33;81.28;;;32.25;;
18259;SDS011;9256;52.236;5.712;2024-03-22T00:12:00;80.40;;;28.48;;
18259;SDS011;9256;52.236;5.712;2024-03-22T00:14:27;77.35;;;27.85;;
18259;SDS011;9256;52.236;5.712;2024-03-22T00:16:53;79.78;;;28.25;;
18259;SDS011;9256;52.236;5.712;2024-03-22T00:19:20;76.13;;;26.92;;
18259;SDS011;9256;52.236;5.712;2024-03-22T00:21:46;72.07;;;26.33;;
18259;SDS011;9256;52.236;5.712;2024-03-22T00:24:12;79.22;;;27.75;;
18259;SDS011;9256;52.236;5.712;2024-03-22T00:26:38;79.13;;;27.30;;
18259;SDS011;9256;52.236;5.712;2024-03-22T00:29:06;78.18;;;26.73;;
18259;SDS011;9256;52.236;5.712;2024-03-22T00:31:33;78.22;;;26.70;;
18259;SDS011;9256;52.236;5.712;2024-03-22T00:34:00;71.93;;;25.98;;
18259;SDS011;9256;52.236;5.712;2024-03-22T00:36:25;75.07;;;26.67;;
18259;SDS011;9256;52.236;5.712;2024-03-22T00:38:52;74.85;;;26.15;;
18259;SDS011;9256;52.236;5.712;2024-03-22T00:41:18;74.93;;;25.42;;
18259;SDS011;9256;52.236;5.712;2024-03-22T00:43:45;74.57;;;26.33;;
18259;SDS011;9256;52.236;5.712;2024-03-22T00:46:12;77.50;;;26.88;;
18259;SDS011;9256;52.236;5.712;2024-03-22T00:48:39;77.07;;;26.63;;
18259;SDS011;9256;52.236;5.712;2024-03-22T00:51:05;75.40;;;26.48;;
18259;SDS011;9256;52.236;5.712;2024-03-22T00:53:32;74.70;;;25.83;;
18259;SDS011;9256;52.236;5.712;2024-03-22T00:55:58;75.45;;;26.40;;
18259;SDS011;9256;52.236;5.712;2024-03-22T00:58:26;76.28;;;27.00;;
18259;SDS011;9256;52.236;5.712;2024-03-22T01:00:52;77.82;;;26.52;;
18259;SDS011;9256;52.236;5.712;2024-03-22T01:03:21;77.55;;;26.77;;
18259;SDS011;9256;52.236;5.712;2024-03-22T01:05:48;77.43;;;26.00;;
18259;SDS011;9256;52.236;5.712;2024-03-22T01:08:14;77.15;;;26.42;;
18259;SDS011;9256;52.236;5.712;2024-03-22T01:10:41;77.20;;;26.45;;
18259;SDS011;9256;52.236;5.712;2024-03-22T01:13:07;76.30;;;26.25;;
18259;SDS011;9256;52.236;5.712;2024-03-22T01:15:34;86.97;;;27.38;;
18259;SDS011;9256;52.236;5.712;2024-03-22T01:18:00;74.93;;;26.75;;
18259;SDS011;9256;52.236;5.712;2024-03-22T01:20:29;76.80;;;27.27;;
18259;SDS011;9256;52.236;5.712;2024-03-22T01:22:55;81.25;;;26.65;;
18259;SDS011;9256;52.236;5.712;2024-03-22T01:25:21;79.80;;;27.77;;
18259;SDS011;9256;52.236;5.712;2024-03-22T01:27:47;82.00;;;27.40;;
18259;SDS011;9256;52.236;5.712;2024-03-22T01:30:14;82.97;;;28.20;;
18259;SDS011;9256;52.236;5.712;2024-03-22T01:32:40;78.50;;;27.92;;
18259;SDS011;9256;52.236;5.712;2024-03-22T01:35:07;82.25;;;28.38;;
18259;SDS011;9256;52.236;5.712;2024-03-22T01:37:35;87.97;;;32.05;;
18259;SDS011;9256;52.236;5.712;2024-03-22T01:40:02;81.65;;;29.00;;
18259;SDS011;9256;52.236;5.712;2024-03-22T01:42:29;82.93;;;29.08;;
18259;SDS011;9256;52.236;5.712;2024-03-22T01:44:56;80.55;;;27.92;;
18259;SDS011;9256;52.236;5.712;2024-03-22T01:47:22;81.65;;;28.55;;
18259;SDS011;9256;52.236;5.712;2024-03-22T01:49:49;84.05;;;28.20;;
18259;SDS011;9256;52.236;5.712;2024-03-22T01:52:17;83.03;;;28.33;;
18259;SDS011;9256;52.236;5.712;2024-03-22T01:54:46;84.95;;;28.65;;
18259;SDS011;9256;52.236;5.712;2024-03-22T01:57:12;79.18;;;27.88;;
18259;SDS011;9256;52.236;5.712;2024-03-22T01:59:38;87.53;;;28.27;;
18259;SDS011;9256;52.236;5.712;2024-03-22T02:02:05;79.82;;;27.45;;
18259;SDS011;9256;52.236;5.712;2024-03-22T02:04:32;81.55;;;28.13;;
18259;SDS011;9256;52.236;5.712;2024-03-22T02:06:58;78.53;;;27.85;;
18259;SDS011;9256;52.236;5.712;2024-03-22T02:09:24;82.20;;;28.20;;
18259;SDS011;9256;52.236;5.712;2024-03-22T02:11:52;81.03;;;26.83;;
18259;SDS011;9256;52.236;5.712;2024-03-22T02:14:19;84.97;;;28.25;;
18259;SDS011;9256;52.236;5.712;2024-03-22T02:16:46;81.93;;;27.38;;
18259;SDS011;9256;52.236;5.712;2024-03-22T02:19:12;82.00;;;28.50;;
18259;SDS011;9256;52.236;5.712;2024-03-22T02:21:39;84.93;;;27.95;;
18259;SDS011;9256;52.236;5.712;2024-03-22T02:24:06;84.78;;;28.92;;
18259;SDS011;9256;52.236;5.712;2024-03-22T02:26:33;81.40;;;28.80;;
18259;SDS011;9256;52.236;5.712;2024-03-22T02:28:59;84.05;;;28.30;;
18259;SDS011;9256;52.236;5.712;2024-03-22T02:31:26;85.80;;;28.88;;
18259;SDS011;9256;52.236;5.712;2024-03-22T02:33:52;84.07;;;29.35;;
18259;SDS011;9256;52.236;5.712;2024-03-22T02:36:19;80.10;;;29.20;;
18259;SDS011;9256;52.236;5.712;2024-03-22T02:38:44;83.20;;;29.60;;
18259;SDS011;9256;52.236;5.712;2024-03-22T02:41:13;89.30;;;29.15;;
18259;SDS011;9256;52.236;5.712;2024-03-22T02:43:38;93.57;;;30.83;;
18259;SDS011;9256;52.236;5.712;2024-03-22T02:46:05;86.82;;;30.58;;
18259;SDS011;9256;52.236;5.712;2024-03-22T02:48:31;87.53;;;30.48;;
18259;SDS011;9256;52.236;5.712;2024-03-22T02:50:58;86.00;;;29.95;;
18259;SDS011;9256;52.236;5.712;2024-03-22T02:53:24;88.10;;;29.98;;
18259;SDS011;9256;52.236;5.712;2024-03-22T02:55:51;85.82;;;29.83;;
18259;SDS011;9256;52.236;5.712;2024-03-22T02:58:19;85.88;;;30.25;;
18259;SDS011;9256;52.236;5.712;2024-03-22T03:00:47;88.57;;;30.02;;
18259;SDS011;9256;52.236;5.712;2024-03-22T03:03:13;91.35;;;30.75;;
18259;SDS011;9256;52.236;5.712;2024-03-22T03:05:40;86.35;;;30.92;;
18259;SDS011;9256;52.236;5.712;2024-03-22T03:08:07;97.82;;;37.25;;
18259;SDS011;9256;52.236;5.712;2024-03-22T03:10:34;92.57;;;31.45;;
18259;SDS011;9256;52.236;5.712;2024-03-22T03:13:00;90.05;;;31.52;;
18259;SDS011;9256;52.236;5.712;2024-03-22T03:15:29;89.57;;;31.50;;
18259;SDS011;9256;52.236;5.712;2024-03-22T03:17:54;87.28;;;31.08;;
18259;SDS011;9256;52.236;5.712;2024-03-22T03:20:21;84.68;;;30.38;;
18259;SDS011;9256;52.236;5.712;2024-03-22T03:22:47;87.60;;;30.63;;
18259;SDS011;9256;52.236;5.712;2024-03-22T03:25:14;92.15;;;31.20;;
18259;SDS011;9256;52.236;5.712;2024-03-22T03:27:40;86.35;;;30.92;;
18259;SDS011;9256;52.236;5.712;2024-03-22T03:30:07;90.35;;;30.52;;
18259;SDS011;9256;52.236;5.712;2024-03-22T03:32:35;87.95;;;29.83;;
18259;SDS011;9256;52.236;5.712;2024-03-22T03:35:01;90.18;;;31.27;;
18259;SDS011;9256;52.236;5.712;2024-03-22T03:37:27;86.00;;;31.00;;
18259;SDS011;9256;52.236;5.712;2024-03-22T03:39:54;97.05;;;37.80;;
18259;SDS011;9256;52.236;5.712;2024-03-22T03:42:20;94.00;;;33.13;;
18259;SDS011;9256;52.236;5.712;2024-03-22T03:44:47;95.60;;;32.85;;
18259;SDS011;9256;52.236;5.712;2024-03-22T03:47:13;90.80;;;32.78;;
18259;SDS011;9256;52.236;5.712;2024-03-22T03:49:41;87.93;;;31.55;;
18259;SDS011;9256;52.236;5.712;2024-03-22T03:52:07;89.13;;;31.70;;
18259;SDS011;9256;52.236;5.712;2024-03-22T03:54:34;87.75;;;31.30;;
18259;SDS011;9256;52.236;5.712;2024-03-22T03:57:00;87.05;;;31.45;;
18259;SDS011;9256;52.236;5.712;2024-03-22T03:59:27;89.38;;;30.42;;
18259;SDS011;9256;52.236;5.712;2024-03-22T04:01:53;98.13;;;31.15;;
18259;SDS011;9256;52.236;5.712;2024-03-22T04:04:19;92.72;;;30.63;;
18259;SDS011;9256;52.236;5.712;2024-03-22T04:06:47;93.00;;;30.25;;
18259;SDS011;9256;52.236;5.712;2024-03-22T04:09:14;91.65;;;30.30;;
18259;SDS011;9256;52.236;5.712;2024-03-22T04:11:39;89.97;;;29.63;;
18259;SDS011;9256;52.236;5.712;2024-03-22T04:14:06;87.75;;;28.67;;
18259;SDS011;9256;52.236;5.712;2024-03-22T04:16:32;94.43;;;29.38;;
18259;SDS011;9256;52.236;5.712;2024-03-22T04:18:59;102.65;;;30.55;;
18259;SDS011;9256;52.236;5.712;2024-03-22T04:21:25;84.60;;;28.10;;
18259;SDS011;9256;52.236;5.712;2024-03-22T04:23:53;96.10;;;29.25;;
18259;SDS011;9256;52.236;5.712;2024-03-22T04:26:19;93.03;;;28.60;;
18259;SDS011;9256;52.236;5.712;2024-03-22T04:28:48;91.32;;;28.70;;
18259;SDS011;9256;52.236;5.712;2024-03-22T04:31:14;94.18;;;27.90;;
18259;SDS011;9256;52.236;5.712;2024-03-22T04:33:41;90.00;;;28.70;;
18259;SDS011;9256;52.236;5.712;2024-03-22T04:36:07;92.22;;;28.17;;
18259;SDS011;9256;52.236;5.712;2024-03-22T04:38:35;97.55;;;34.83;;
18259;SDS011;9256;52.236;5.712;2024-03-22T04:41:03;86.60;;;29.00;;
18259;SDS011;9256;52.236;5.712;2024-03-22T04:43:30;93.75;;;28.65;;
18259;SDS011;9256;52.236;5.712;2024-03-22T04:45:57;86.72;;;27.17;;
18259;SDS011;9256;52.236;5.712;2024-03-22T04:48:23;86.43;;;27.38;;
18259;SDS011;9256;52.236;5.712;2024-03-22T04:50:51;87.22;;;28.02;;
18259;SDS011;9256;52.236;5.712;2024-03-22T04:53:18;82.22;;;26.38;;
18259;SDS011;9256;52.236;5.712;2024-03-22T04:55:46;80.32;;;25.45;;
18259;SDS011;9256;52.236;5.712;2024-03-22T04:58:15;81.15;;;25.98;;
18259;SDS011;9256;52.236;5.712;2024-03-22T05:00:42;78.63;;;24.35;;
18259;SDS011;9256;52.236;5.712;2024-03-22T05:03:09;85.70;;;26.02;;
18259;SDS011;9256;52.236;5.712;2024-03-22T05:05:36;81.97;;;24.35;;
18259;SDS011;9256;52.236;5.712;2024-03-22T05:08:04;81.38;;;24.77;;
18259;SDS011;9256;52.236;5.712;2024-03-22T05:10:31;83.72;;;25.42;;
18259;SDS011;9256;52.236;5.712;2024-03-22T05:12:58;76.72;;;24.23;;
18259;SDS011;9256;52.236;5.712;2024-03-22T05:15:26;82.70;;;24.92;;
18259;SDS011;9256;52.236;5.712;2024-03-22T05:17:53;86.00;;;25.85;;
18259;SDS011;9256;52.236;5.712;2024-03-22T05:20:23;85.18;;;24.85;;
18259;SDS011;9256;52.236;5.712;2024-03-22T05:22:50;84.05;;;25.60;;
18259;SDS011;9256;52.236;5.712;2024-03-22T05:25:16;85.38;;;25.20;;
18259;SDS011;9256;52.236;5.712;2024-03-22T05:27:43;89.03;;;30.87;;
18259;SDS011;9256;52.236;5.712;2024-03-22T05:30:10;89.97;;;27.17;;
18259;SDS011;9256;52.236;5.712;2024-03-22T05:32:40;84.97;;;26.52;;
18259;SDS011;9256;52.236;5.712;2024-03-22T05:35:06;89.13;;;25.17;;
18259;SDS011;9256;52.236;5.712;2024-03-22T05:37:33;84.50;;;26.08;;
18259;SDS011;9256;52.236;5.712;2024-03-22T05:39:59;81.00;;;25.48;;
18259;SDS011;9256;52.236;5.712;2024-03-22T05:42:26;80.60;;;25.60;;
18259;SDS011;9256;52.236;5.712;2024-03-22T05:44:53;83.03;;;25.70;;
18259;SDS011;9256;52.236;5.712;2024-03-22T05:47:21;81.10;;;26.02;;
18259;SDS011;9256;52.236;5.712;2024-03-22T05:49:48;90.53;;;30.88;;
18259;SDS011;9256;52.236;5.712;2024-03-22T05:52:15;80.82;;;26.48;;
18259;SDS011;9256;52.236;5.712;2024-03-22T05:54:41;88.53;;;32.10;;
18259;SDS011;9256;52.236;5.712;2024-03-22T05:57:08;86.15;;;28.10;;
18259;SDS011;9256;52.236;5.712;2024-03-22T05:59:34;86.72;;;26.88;;
18259;SDS011;9256;52.236;5.712;2024-03-22T06:02:01;86.53;;;26.63;;
18259;SDS011;9256;52.236;5.712;2024-03-22T06:04:27;81.88;;;25.90;;
18259;SDS011;9256;52.236;5.712;2024-03-22T06:06:56;91.60;;;31.43;;
18259;SDS011;9256;52.236;5.712;2024-03-22T06:09:24;82.30;;;28.08;;
18259;SDS011;9256;52.236;5.712;2024-03-22T06:11:59;90.10;;;27.80;;
18259;SDS011;9256;52.236;5.712;2024-03-22T06:14:27;80.57;;;26.45;;
18259;SDS011;9256;52.236;5.712;2024-03-22T06:16:54;87.32;;;26.98;;
18259;SDS011;9256;52.236;5.712;2024-03-22T06:19:20;85.75;;;26.83;;
18259;SDS011;9256;52.236;5.712;2024-03-22T06:21:47;82.00;;;25.88;;
18259;SDS011;9256;52.236;5.712;2024-03-22T06:24:14;82.75;;;25.77;;
18259;SDS011;9256;52.236;5.712;2024-03-22T06:26:41;78.63;;;26.33;;
18259;SDS011;9256;52.236;5.712;2024-03-22T06:29:07;81.45;;;27.23;;
18259;SDS011;9256;52.236;5.712;2024-03-22T06:31:33;74.93;;;25.70;;
18259;SDS011;9256;52.236;5.712;2024-03-22T06:33:59;76.68;;;25.40;;
18259;SDS011;9256;52.236;5.712;2024-03-22T06:36:28;73.60;;;24.73;;
18259;SDS011;9256;52.236;5.712;2024-03-22T06:38:54;75.65;;;24.70;;
18259;SDS011;9256;52.236;5.712;2024-03-22T06:41:22;74.68;;;24.10;;
18259;SDS011;9256;52.236;5.712;2024-03-22T06:43:48;73.55;;;24.60;;
18259;SDS011;9256;52.236;5.712;2024-03-22T06:46:16;73.03;;;23.80;;
18259;SDS011;9256;52.236;5.712;2024-03-22T06:48:41;72.78;;;24.13;;
18259;SDS011;9256;52.236;5.712;2024-03-22T06:51:08;71.88;;;24.10;;
18259;SDS011;9256;52.236;5.712;2024-03-22T06:53:34;69.38;;;23.00;;
18259;SDS011;9256;52.236;5.712;2024-03-22T06:56:01;66.22;;;21.80;;
18259;SDS011;9256;52.236;5.712;2024-03-22T06:58:29;64.20;;;21.73;;
18259;SDS011;9256;52.236;5.712;2024-03-22T07:00:56;64.68;;;21.35;;
18259;SDS011;9256;52.236;5.712;2024-03-22T07:03:21;67.00;;;22.45;;
18259;SDS011;9256;52.236;5.712;2024-03-22T07:05:48;67.43;;;22.45;;
18259;SDS011;9256;52.236;5.712;2024-03-22T07:08:14;64.15;;;22.17;;
18259;SDS011;9256;52.236;5.712;2024-03-22T07:10:41;66.72;;;22.15;;
18259;SDS011;9256;52.236;5.712;2024-03-22T07:13:07;65.25;;;22.52;;
18259;SDS011;9256;52.236;5.712;2024-03-22T07:15:35;65.40;;;22.92;;
18259;SDS011;9256;52.236;5.712;2024-03-22T07:18:01;65.13;;;22.10;;
18259;SDS011;9256;52.236;5.712;2024-03-22T07:20:28;72.43;;;22.48;;
18259;SDS011;9256;52.236;5.712;2024-03-22T07:22:55;65.35;;;21.25;;
18259;SDS011;9256;52.236;5.712;2024-03-22T07:25:22;58.88;;;21.50;;
18259;SDS011;9256;52.236;5.712;2024-03-22T07:27:48;62.60;;;21.55;;
18259;SDS011;9256;52.236;5.712;2024-03-22T07:30:15;60.95;;;20.52;;
18259;SDS011;9256;52.236;5.712;2024-03-22T07:32:42;57.40;;;19.50;;
18259;SDS011;9256;52.236;5.712;2024-03-22T07:35:09;57.45;;;20.50;;
18259;SDS011;9256;52.236;5.712;2024-03-22T07:37:35;58.20;;;20.17;;
18259;SDS011;9256;52.236;5.712;2024-03-22T07:40:03;54.03;;;18.33;;
18259;SDS011;9256;52.236;5.712;2024-03-22T07:42:30;59.17;;;21.42;;
18259;SDS011;9256;52.236;5.712;2024-03-22T07:44:57;53.20;;;19.08;;
18259;SDS011;9256;52.236;5.712;2024-03-22T07:47:23;47.45;;;17.70;;
18259;SDS011;9256;52.236;5.712;2024-03-22T07:49:51;50.53;;;16.83;;
18259;SDS011;9256;52.236;5.712;2024-03-22T07:52:19;52.55;;;17.10;;
18259;SDS011;9256;52.236;5.712;2024-03-22T07:54:46;41.33;;;15.38;;
18259;SDS011;9256;52.236;5.712;2024-03-22T07:57:15;49.00;;;15.73;;
18259;SDS011;9256;52.236;5.712;2024-03-22T07:59:42;48.38;;;16.08;;
18259;SDS011;9256;52.236;5.712;2024-03-22T08:02:10;49.40;;;16.20;;
18259;SDS011;9256;52.236;5.712;2024-03-22T08:04:37;47.47;;;15.98;;
18259;SDS011;9256;52.236;5.712;2024-03-22T08:07:04;46.78;;;15.75;;
18259;SDS011;9256;52.236;5.712;2024-03-22T08:09:31;51.83;;;18.92;;
18259;SDS011;9256;52.236;5.712;2024-03-22T08:11:59;48.88;;;17.10;;
18259;SDS011;9256;52.236;5.712;2024-03-22T08:14:26;55.75;;;17.65;;
18259;SDS011;9256;52.236;5.712;2024-03-22T08:16:52;48.33;;;16.67;;
18259;SDS011;9256;52.236;5.712;2024-03-22T08:19:19;55.00;;;16.10;;
18259;SDS011;9256;52.236;5.712;2024-03-22T08:21:45;45.85;;;16.33;;
18259;SDS011;9256;52.236;5.712;2024-03-22T08:24:13;44.67;;;15.10;;
18259;SDS011;9256;52.236;5.712;2024-03-22T08:26:39;46.85;;;15.90;;
18259;SDS011;9256;52.236;5.712;2024-03-22T08:29:10;42.80;;;15.30;;
18259;SDS011;9256;52.236;5.712;2024-03-22T08:31:36;49.03;;;16.70;;
18259;SDS011;9256;52.236;5.712;2024-03-22T08:34:03;45.92;;;16.55;;
18259;SDS011;9256;52.236;5.712;2024-03-22T08:36:30;47.83;;;17.13;;
18259;SDS011;9256;52.236;5.712;2024-03-22T08:38:57;43.92;;;15.65;;
18259;SDS011;9256;52.236;5.712;2024-03-22T08:41:25;42.35;;;15.82;;
18259;SDS011;9256;52.236;5.712;2024-03-22T08:43:51;45.25;;;16.17;;
18259;SDS011;9256;52.236;5.712;2024-03-22T08:46:17;45.05;;;16.15;;
18259;SDS011;9256;52.236;5.712;2024-03-22T08:48:46;41.22;;;15.10;;
18259;SDS011;9256;52.236;5.712;2024-03-22T08:51:12;44.15;;;15.57;;
18259;SDS011;9256;52.236;5.712;2024-03-22T08:53:39;46.08;;;15.45;;
18259;SDS011;9256;52.236;5.712;2024-03-22T08:56:05;45.28;;;16.50;;
18259;SDS011;9256;52.236;5.712;2024-03-22T08:58:34;52.47;;;16.05;;
18259;SDS011;9256;52.236;5.712;2024-03-22T09:01:00;42.05;;;15.93;;
18259;SDS011;9256;52.236;5.712;2024-03-22T09:03:27;45.78;;;16.05;;
18259;SDS011;9256;52.236;5.712;2024-03-22T09:05:56;42.33;;;15.85;;
18259;SDS011;9256;52.236;5.712;2024-03-22T09:08:23;37.00;;;13.82;;
18259;SDS011;9256;52.236;5.712;2024-03-22T09:10:49;41.90;;;15.05;;
18259;SDS011;9256;52.236;5.712;2024-03-22T09:13:16;45.65;;;15.88;;
18259;SDS011;9256;52.236;5.712;2024-03-22T09:15:43;46.35;;;15.73;;
18259;SDS011;9256;52.236;5.712;2024-03-22T09:18:10;40.00;;;15.13;;
18259;SDS011;9256;52.236;5.712;2024-03-22T09:20:36;42.20;;;15.05;;
18259;SDS011;9256;52.236;5.712;2024-03-22T09:23:03;39.58;;;15.63;;
18259;SDS011;9256;52.236;5.712;2024-03-22T09:25:29;45.22;;;15.07;;
18259;SDS011;9256;52.236;5.712;2024-03-22T09:27:56;42.80;;;14.75;;
18259;SDS011;9256;52.236;5.712;2024-03-22T09:30:22;42.75;;;15.02;;
18259;SDS011;9256;52.236;5.712;2024-03-22T09:32:51;42.42;;;14.93;;
18259;SDS011;9256;52.236;5.712;2024-03-22T09:35:17;47.47;;;14.73;;
18259;SDS011;9256;52.236;5.712;2024-03-22T09:37:44;42.25;;;15.30;;
18259;SDS011;9256;52.236;5.712;2024-03-22T09:40:10;39.90;;;14.60;;
18259;SDS011;9256;52.236;5.712;2024-03-22T09:42:38;39.53;;;13.52;;
18259;SDS011;9256;52.236;5.712;2024-03-22T09:45:09;36.78;;;13.73;;
18259;SDS011;9256;52.236;5.712;2024-03-22T09:47:37;35.80;;;12.88;;
18259;SDS011;9256;52.236;5.712;2024-03-22T09:50:07;34.00;;;12.80;;
18259;SDS011;9256;52.236;5.712;2024-03-22T09:52:35;29.08;;;12.50;;
18259;SDS011;9256;52.236;5.712;2024-03-22T09:55:03;31.08;;;12.82;;
18259;SDS011;9256;52.236;5.712;2024-03-22T09:57:31;29.35;;;11.40;;
18259;SDS011;9256;52.236;5.712;2024-03-22T10:00:01;28.73;;;11.15;;
18259;SDS011;9256;52.236;5.712;2024-03-22T10:02:30;27.70;;;10.98;;
18259;SDS011;9256;52.236;5.712;2024-03-22T10:04:57;27.65;;;11.40;;
18259;SDS011;9256;52.236;5.712;2024-03-22T10:07:26;27.83;;;11.10;;
18259;SDS011;9256;52.236;5.712;2024-03-22T10:09:52;26.92;;;10.65;;
18259;SDS011;9256;52.236;5.712;2024-03-22T10:12:19;26.08;;;10.75;;
18259;SDS011;9256;52.236;5.712;2024-03-22T10:14:45;24.33;;;10.55;;
18259;SDS011;9256;52.236;5.712;2024-03-22T10:17:12;28.57;;;12.63;;
18259;SDS011;9256;52.236;5.712;2024-03-22T10:19:40;26.92;;;10.45;;
18259;SDS011;9256;52.236;5.712;2024-03-22T10:22:07;28.30;;;10.80;;
18259;SDS011;9256;52.236;5.712;2024-03-22T10:24:34;26.67;;;10.60;;
18259;SDS011;9256;52.236;5.712;2024-03-22T10:27:02;28.00;;;13.03;;
18259;SDS011;9256;52.236;5.712;2024-03-22T10:29:28;23.00;;;11.23;;
18259;SDS011;9256;52.236;5.712;2024-03-22T10:31:55;26.92;;;10.45;;
18259;SDS011;9256;52.236;5.712;2024-03-22T10:34:21;27.73;;;11.80;;
18259;SDS011;9256;52.236;5.712;2024-03-22T10:36:50;21.58;;;9.57;;
18259;SDS011;9256;52.236;5.712;2024-03-22T10:39:17;20.08;;;9.13;;
18259;SDS011;9256;52.236;5.712;2024-03-22T10:41:46;22.15;;;9.35;;
18259;SDS011;9256;52.236;5.712;2024-03-22T10:44:13;25.10;;;9.95;;
18259;SDS011;9256;52.236;5.712;2024-03-22T10:46:42;20.83;;;9.23;;
18259;SDS011;9256;52.236;5.712;2024-03-22T10:49:10;23.38;;;9.30;;
18259;SDS011;9256;52.236;5.712;2024-03-22T10:51:41;21.25;;;9.23;;
18259;SDS011;9256;52.236;5.712;2024-03-22T10:54:10;19.95;;;8.75;;
18259;SDS011;9256;52.236;5.712;2024-03-22T10:56:39;21.63;;;9.07;;
18259;SDS011;9256;52.236;5.712;2024-03-22T10:59:08;20.20;;;9.15;;
18259;SDS011;9256;52.236;5.712;2024-03-22T11:01:38;20.65;;;8.90;;
18259;SDS011;9256;52.236;5.712;2024-03-22T11:04:10;18.88;;;8.43;;
18259;SDS011;9256;52.236;5.712;2024-03-22T11:06:37;18.50;;;8.73;;
18259;SDS011;9256;52.236;5.712;2024-03-22T11:09:03;21.00;;;8.85;;
18259;SDS011;9256;52.236;5.712;2024-03-22T11:11:30;21.25;;;9.02;;
18259;SDS011;9256;52.236;5.712;2024-03-22T11:14:02;16.95;;;8.45;;
18259;SDS011;9256;52.236;5.712;2024-03-22T11:16:30;21.40;;;9.35;;
18259;SDS011;9256;52.236;5.712;2024-03-22T11:18:59;17.48;;;8.25;;
18259;SDS011;9256;52.236;5.712;2024-03-22T11:21:26;19.73;;;8.63;;
18259;SDS011;9256;52.236;5.712;2024-03-22T11:23:52;16.70;;;8.23;;
18259;SDS011;9256;52.236;5.712;2024-03-22T11:26:20;17.20;;;8.52;;
18259;SDS011;9256;52.236;5.712;2024-03-22T11:28:45;19.23;;;8.77;;
18259;SDS011;9256;52.236;5.712;2024-03-22T11:31:13;16.67;;;8.13;;
18259;SDS011;9256;52.236;5.712;2024-03-22T11:33:40;16.88;;;7.68;;
18259;SDS011;9256;52.236;5.712;2024-03-22T11:36:07;17.23;;;8.18;;
18259;SDS011;9256;52.236;5.712;2024-03-22T11:38:34;16.17;;;7.65;;
18259;SDS011;9256;52.236;5.712;2024-03-22T11:41:01;19.95;;;8.43;;
18259;SDS011;9256;52.236;5.712;2024-03-22T11:43:28;18.23;;;8.15;;
18259;SDS011;9256;52.236;5.712;2024-03-22T11:45:56;15.93;;;7.28;;
18259;SDS011;9256;52.236;5.712;2024-03-22T11:48:22;18.83;;;9.55;;
18259;SDS011;9256;52.236;5.712;2024-03-22T11:50:50;14.85;;;8.05;;
18259;SDS011;9256;52.236;5.712;2024-03-22T11:53:17;16.65;;;7.18;;
18259;SDS011;9256;52.236;5.712;2024-03-22T11:55:43;15.40;;;6.97;;
18259;SDS011;9256;52.236;5.712;2024-03-22T11:58:10;14.70;;;6.80;;
18259;SDS011;9256;52.236;5.712;2024-03-22T12:00:37;13.68;;;6.75;;
18259;SDS011;9256;52.236;5.712;2024-03-22T12:03:04;16.27;;;7.05;;
18259;SDS011;9256;52.236;5.712;2024-03-22T12:05:33;16.23;;;7.75;;
18259;SDS011;9256;52.236;5.712;2024-03-22T12:08:03;12.13;;;6.72;;
18259;SDS011;9256;52.236;5.712;2024-03-22T12:10:30;12.25;;;5.90;;
18259;SDS011;9256;52.236;5.712;2024-03-22T12:12:56;14.32;;;6.43;;
18259;SDS011;9256;52.236;5.712;2024-03-22T12:15:23;12.00;;;6.67;;
18259;SDS011;9256;52.236;5.712;2024-03-22T12:17:49;11.27;;;6.30;;
18259;SDS011;9256;52.236;5.712;2024-03-22T12:20:16;10.60;;;5.75;;
18259;SDS011;9256;52.236;5.712;2024-03-22T12:22:42;12.02;;;5.53;;
18259;SDS011;9256;52.236;5.712;2024-03-22T12:25:10;9.75;;;5.03;;
18259;SDS011;9256;52.236;5.712;2024-03-22T12:27:36;9.57;;;4.93;;
18259;SDS011;9256;52.236;5.712;2024-03-22T12:30:04;8.98;;;5.00;;
18259;SDS011;9256;52.236;5.712;2024-03-22T12:32:31;8.55;;;4.60;;
18259;SDS011;9256;52.236;5.712;2024-03-22T12:34:58;9.95;;;5.05;;
18259;SDS011;9256;52.236;5.712;2024-03-22T12:37:24;8.05;;;4.70;;
18259;SDS011;9256;52.236;5.712;2024-03-22T12:39:51;10.35;;;4.85;;
18259;SDS011;9256;52.236;5.712;2024-03-22T12:42:20;12.20;;;6.30;;
18259;SDS011;9256;52.236;5.712;2024-03-22T12:44:47;11.82;;;6.25;;
18259;SDS011;9256;52.236;5.712;2024-03-22T12:47:13;11.48;;;6.13;;
18259;SDS011;9256;52.236;5.712;2024-03-22T12:49:40;11.27;;;5.70;;
18259;SDS011;9256;52.236;5.712;2024-03-22T12:52:06;10.20;;;5.63;;
18259;SDS011;9256;52.236;5.712;2024-03-22T12:54:33;11.82;;;6.03;;
18259;SDS011;9256;52.236;5.712;2024-03-22T12:56:59;11.98;;;5.88;;
18259;SDS011;9256;52.236;5.712;2024-03-22T12:59:27;11.85;;;6.10;;
18259;SDS011;9256;52.236;5.712;2024-03-22T13:01:53;13.30;;;6.75;;
18259;SDS011;9256;52.236;5.712;2024-03-22T13:04:20;12.35;;;6.20;;
18259;SDS011;9256;52.236;5.712;2024-03-22T13:06:46;14.15;;;6.70;;
18259;SDS011;9256;52.236;5.712;2024-03-22T13:09:13;17.58;;;7.05;;
18259;SDS011;9256;52.236;5.712;2024-03-22T13:11:39;16.45;;;7.50;;
18259;SDS011;9256;52.236;5.712;2024-03-22T13:14:07;17.58;;;8.63;;
18259;SDS011;9256;52.236;5.712;2024-03-22T13:16:34;17.10;;;7.82;;
18259;SDS011;9256;52.236;5.712;2024-03-22T13:19:01;17.25;;;8.20;;
18259;SDS011;9256;52.236;5.712;2024-03-22T13:21:27;17.25;;;7.82;;
18259;SDS011;9256;52.236;5.712;2024-03-22T13:23:54;18.30;;;8.40;;
18259;SDS011;9256;52.236;5.712;2024-03-22T13:26:19;21.00;;;9.38;;
18259;SDS011;9256;52.236;5.712;2024-03-22T13:28:46;22.60;;;9.50;;
18259;SDS011;9256;52.236;5.712;2024-03-22T13:31:12;21.15;;;9.57;;
18259;SDS011;9256;52.236;5.712;2024-03-22T13:33:41;23.42;;;10.18;;
18259;SDS011;9256;52.236;5.712;2024-03-22T13:36:07;23.48;;;11.32;;
18259;SDS011;9256;52.236;5.712;2024-03-22T13:38:34;23.05;;;10.43;;
18259;SDS011;9256;52.236;5.712;2024-03-22T13:41:02;27.02;;;9.75;;
18259;SDS011;9256;52.236;5.712;2024-03-22T13:43:31;23.10;;;9.35;;
18259;SDS011;9256;52.236;5.712;2024-03-22T13:45:57;22.83;;;9.45;;
18259;SDS011;9256;52.236;5.712;2024-03-22T13:48:25;23.60;;;9.98;;
18259;SDS011;9256;52.236;5.712;2024-03-22T13:50:53;21.02;;;10.07;;
18259;SDS011;9256;52.236;5.712;2024-03-22T13:53:20;22.73;;;9.65;;
18259;SDS011;9256;52.236;5.712;2024-03-22T13:55:47;23.27;;;9.95;;
18259;SDS011;9256;52.236;5.712;2024-03-22T13:58:14;25.75;;;9.57;;
18259;SDS011;9256;52.236;5.712;2024-03-22T14:00:40;23.08;;;9.90;;
18259;SDS011;9256;52.236;5.712;2024-03-22T14:03:08;27.23;;;11.15;;
18259;SDS011;9256;52.236;5.712;2024-03-22T14:05:35;24.38;;;10.18;;
18259;SDS011;9256;52.236;5.712;2024-03-22T14:08:04;25.15;;;10.32;;
18259;SDS011;9256;52.236;5.712;2024-03-22T14:10:30;27.77;;;10.20;;
18259;SDS011;9256;52.236;5.712;2024-03-22T14:12:57;26.88;;;11.18;;
18259;SDS011;9256;52.236;5.712;2024-03-22T14:15:24;25.15;;;10.88;;
18259;SDS011;9256;52.236;5.712;2024-03-22T14:17:52;28.65;;;11.93;;
18259;SDS011;9256;52.236;5.712;2024-03-22T14:20:18;25.60;;;11.20;;
18259;SDS011;9256;52.236;5.712;2024-03-22T14:22:45;28.90;;;11.90;;
18259;SDS011;9256;52.236;5.712;2024-03-22T14:25:13;30.38;;;12.05;;
18259;SDS011;9256;52.236;5.712;2024-03-22T14:27:40;33.05;;;14.13;;
18259;SDS011;9256;52.236;5.712;2024-03-22T14:30:10;29.83;;;12.52;;
18259;SDS011;9256;52.236;5.712;2024-03-22T14:32:38;26.90;;;11.50;;
18259;SDS011;9256;52.236;5.712;2024-03-22T14:35:04;32.78;;;12.63;;
18259;SDS011;9256;52.236;5.712;2024-03-22T14:37:31;32.38;;;12.30;;